Time;durP1;ratioP1;P1;durP2;ratioP2;P2;SDS_P1;SDS_P2;PMS_P1;PMS_P2;Temp;Humidity;BMP_temperature;BMP_pressure;BME280_temperature;BME280_humidity;BME280_pressure;Samples;Min_cycle;Max_cycle;Signal;HPM_P1;HPM_P2
2022/11/22 00:00:50;;;;;;;5.50;2.50;;;7.10;99.20;;;10.43;53.09;95623.91;5001391;28;20038;-59
2022/11/22 00:03:18;;;;;;;6.30;2.60;;;7.00;99.00;;;10.43;53.03;95617.78;5002309;28;20043;-59
2022/11/22 00:05:46;;;;;;;3.97;2.10;;;7.00;99.20;;;10.40;53.03;95603.06;5002068;28;20057;-57
2022/11/22 00:08:14;;;;;;;5.03;2.13;;;7.00;99.40;;;10.42;53.39;95605.50;5002391;28;20046;-59
2022/11/22 00:10:41;;;;;;;4.10;2.03;;;7.10;99.00;;;10.41;53.25;95598.53;5002225;28;20046;-59
2022/11/22 00:13:09;;;;;;;4.87;3.10;;;7.00;98.90;;;10.36;53.63;95591.19;5002768;28;20253;-57
2022/11/22 00:15:37;;;;;;;3.43;2.20;;;7.00;99.20;;;10.35;53.49;95589.59;5001694;28;20353;-59
2022/11/22 00:18:05;;;;;;;6.10;2.30;;;6.90;99.90;;;10.35;53.69;95597.56;5002283;28;20340;-57
2022/11/22 00:20:33;;;;;;;3.17;1.90;;;6.90;99.90;;;10.36;53.53;95590.38;5002107;28;20474;-59
2022/11/22 00:23:01;;;;;;;3.37;2.20;;;6.90;99.90;;;10.36;53.60;95583.22;5001415;28;20046;-58
2022/11/22 00:25:29;;;;;;;3.57;2.20;;;6.90;99.90;;;10.38;53.63;95588.34;5000584;28;20042;-59
2022/11/22 00:27:57;;;;;;;5.20;2.27;;;7.00;99.80;;;10.37;53.04;95576.88;5001131;28;20050;-59
2022/11/22 00:30:25;;;;;;;4.40;2.40;;;7.10;99.50;;;10.37;53.39;95573.38;5002236;28;20046;-58
2022/11/22 00:32:52;;;;;;;5.97;2.50;;;7.10;99.10;;;10.32;53.73;95581.19;5001261;28;20046;-57
2022/11/22 00:35:20;;;;;;;3.63;2.17;;;7.10;99.20;;;10.30;53.78;95584.06;5001652;28;20043;-59
2022/11/22 00:37:48;;;;;;;5.77;2.40;;;7.00;99.70;;;10.31;53.71;95591.00;5002134;28;20042;-59
2022/11/22 00:40:16;;;;;;;6.57;2.50;;;7.00;99.80;;;10.28;53.62;95583.44;5001041;28;20343;-59
2022/11/22 00:42:44;;;;;;;4.97;3.10;;;6.90;99.90;;;10.29;54.03;95593.03;5001158;28;20050;-58
2022/11/22 00:45:12;;;;;;;7.53;2.20;;;6.90;99.90;;;10.32;53.92;95599.81;5001864;28;20053;-57
2022/11/22 00:47:40;;;;;;;5.60;2.43;;;6.90;99.90;;;10.26;54.17;95588.13;5002047;28;20054;-58
2022/11/22 00:50:09;;;;;;;3.17;2.07;;;6.90;99.90;;;10.25;53.98;95605.94;5002083;28;20045;-59
2022/11/22 00:52:37;;;;;;;6.77;2.43;;;6.80;99.90;;;10.27;53.76;95607.56;5002014;28;20050;-59
2022/11/22 00:55:05;;;;;;;5.67;2.87;;;6.90;99.90;;;10.28;53.93;95623.31;5001803;28;20046;-59
2022/11/22 00:57:33;;;;;;;4.87;2.23;;;6.90;99.90;;;10.30;53.88;95628.44;5001925;28;20047;-58
2022/11/22 01:00:01;;;;;;;5.57;2.60;;;6.90;99.90;;;10.32;54.03;95627.22;5002323;28;20140;-54
2022/11/22 01:02:28;;;;;;;4.10;2.17;;;7.00;99.90;;;10.33;54.12;95638.66;5001847;28;20371;-56
2022/11/22 01:04:56;;;;;;;6.27;2.73;;;7.00;99.90;;;10.34;54.08;95648.28;5000485;28;20038;-57
2022/11/22 01:07:24;;;;;;;6.83;2.93;;;7.00;99.90;;;10.33;54.36;95654.63;5002223;28;20050;-56
2022/11/22 01:09:52;;;;;;;4.00;3.03;;;7.00;99.90;;;10.29;54.42;95658.69;5005470;28;20057;-56
2022/11/22 01:12:20;;;;;;;3.60;2.03;;;6.90;99.90;;;10.31;54.34;95648.69;5004171;28;20042;-56
2022/11/22 01:14:47;;;;;;;7.13;2.20;;;6.90;99.90;;;10.31;54.18;95654.03;5005109;28;20054;-54
2022/11/22 01:17:16;;;;;;;3.10;2.17;;;6.90;99.90;;;10.27;54.60;95660.75;5005143;28;20064;-55
2022/11/22 01:19:44;;;;;;;3.20;2.07;;;6.90;99.90;;;10.24;54.94;95662.81;5005388;28;20271;-56
2022/11/22 01:22:12;;;;;;;6.27;2.50;;;6.90;99.90;;;10.21;54.62;95660.53;5003970;28;20050;-55
2022/11/22 01:24:40;;;;;;;4.33;2.17;;;6.80;99.90;;;10.23;54.82;95653.19;5003077;28;20056;-59
2022/11/22 01:27:08;;;;;;;3.57;2.07;;;6.90;99.90;;;10.27;54.97;95652.78;5020420;28;20068;-57
2022/11/22 01:29:36;;;;;;;3.93;2.10;;;6.90;99.90;;;10.30;54.65;95652.38;5003853;28;20042;-59
2022/11/22 01:32:04;;;;;;;3.33;2.00;;;6.90;99.90;;;10.32;54.88;95666.31;5005167;28;20038;-58
2022/11/22 01:34:32;;;;;;;4.67;1.87;;;7.00;99.90;;;10.33;54.89;95657.28;5003241;28;20050;-59
2022/11/22 01:36:59;;;;;;;5.50;1.83;;;7.00;99.90;;;10.28;54.77;95662.41;5005347;28;20048;-59
2022/11/22 01:39:27;;;;;;;4.10;2.30;;;6.90;99.90;;;10.27;54.92;95661.56;5003775;28;20245;-59
2022/11/22 01:41:55;;;;;;;5.27;2.27;;;6.90;99.90;;;10.26;55.17;95665.25;5019852;28;20050;-59
2022/11/22 01:44:28;;;;;;;4.10;2.17;;;6.90;99.90;;;10.24;55.02;95665.47;5004996;28;20052;-57
2022/11/22 01:47:22;;;;;;;5.17;2.40;;;6.90;99.90;;;10.25;55.41;95664.44;5004796;28;20044;-59
2022/11/22 01:49:56;;;;;;;3.72;2.78;;;6.90;99.90;;;10.26;55.31;95670.59;5004564;28;20048;-57
2022/11/22 01:52:29;;;;;;;4.23;1.70;;;6.80;99.90;;;10.23;55.60;95661.16;5005010;28;20050;-57
2022/11/22 01:55:07;;;;;;;6.27;2.33;;;6.80;99.90;;;10.25;55.42;95668.94;5000715;28;20046;-57
2022/11/22 01:57:39;;;;;;;4.27;2.17;;;6.80;99.90;;;10.23;55.69;95666.47;5003677;28;20048;-57
2022/11/22 02:00:11;;;;;;;4.13;2.20;;;6.80;99.90;;;10.26;55.81;95675.91;5003365;28;20050;-58
2022/11/22 02:02:57;;;;;;;5.07;2.30;;;6.80;99.90;;;10.26;55.56;95667.94;5019793;28;20058;-57
2022/11/22 02:05:30;;;;;;;3.33;2.33;;;6.80;99.90;;;10.25;55.79;95674.25;5003736;28;20067;-58
2022/11/22 02:08:29;;;;;;;5.23;2.60;;;6.80;99.90;;;10.23;55.52;95674.44;5004805;28;20299;-58
2022/11/22 02:11:01;;;;;;;2.90;2.10;;;6.80;99.90;;;10.21;56.00;95675.69;5004315;28;20229;-58
2022/11/22 02:13:33;;;;;;;4.20;2.20;;;6.80;99.90;;;10.22;55.76;95687.97;5003593;28;20054;-57
2022/11/22 02:16:03;;;;;;;3.27;1.90;;;6.80;99.90;;;10.24;55.74;95677.94;5002744;28;20354;-58
2022/11/22 02:18:35;;;;;;;3.37;2.27;;;6.90;99.90;;;10.30;55.88;95676.31;5002439;28;20050;-58
2022/11/22 02:21:04;;;;;;;4.33;2.07;;;6.90;99.90;;;10.33;55.81;95678.56;5002210;28;20344;-59
2022/11/22 02:24:00;;;;;;;4.43;1.97;;;7.00;99.90;;;10.33;55.75;95671.44;5003001;28;20046;-58
2022/11/22 02:26:30;;;;;;;5.80;1.90;;;7.10;99.90;;;10.32;55.58;95676.94;5002930;28;20095;-56
2022/11/22 02:29:04;;;;;;;8.10;2.10;;;7.10;99.90;;;10.35;55.94;95681.84;5002744;28;20056;-58
2022/11/22 02:31:45;;;;;;;4.53;2.77;;;7.00;99.90;;;10.37;55.77;95685.09;5002812;28;20045;-58
2022/11/22 02:34:13;;;;;;;4.77;2.17;;;7.10;99.90;;;10.35;55.84;95688.00;4986667;28;20244;-58
2022/11/22 02:36:48;;;;;;;4.87;1.90;;;7.10;99.90;;;10.37;55.89;95685.09;5003808;28;20046;-58
2022/11/22 02:39:21;;;;;;;3.63;2.33;;;7.00;99.90;;;10.36;56.03;95684.28;5003925;28;20061;-58
2022/11/22 02:41:50;;;;;;;2.40;1.90;;;7.00;99.90;;;10.37;56.03;95685.94;5002826;28;20352;-58
2022/11/22 02:44:19;;;;;;;4.20;2.10;;;7.00;99.90;;;10.34;55.92;95690.84;5002027;28;20072;-58
2022/11/22 02:46:50;;;;;;;2.43;1.70;;;7.00;99.90;;;10.34;55.85;95691.66;5002416;28;20058;-58
2022/11/22 02:49:23;;;;;;;4.37;1.70;;;6.90;99.90;;;10.32;56.17;95696.38;5002705;28;20050;-58
2022/11/22 02:51:52;;;;;;;6.80;2.37;;;6.90;99.90;;;10.23;56.04;95690.41;5002611;28;20042;-58
2022/11/22 02:54:20;;;;;;;5.17;1.70;;;6.80;99.90;;;10.17;56.38;95687.78;5002012;28;20214;-58
2022/11/22 02:56:48;;;;;;;3.37;1.87;;;6.80;99.90;;;10.20;56.04;95682.06;5002054;28;20042;-60
2022/11/22 02:59:15;;;;;;;3.37;2.00;;;6.80;99.90;;;10.18;56.14;95690.22;5003486;28;20056;-57
2022/11/22 03:01:45;;;;;;;3.53;2.10;;;6.80;99.90;;;10.16;56.01;95692.28;5002336;28;20073;-57
2022/11/22 03:04:23;;;;;;;4.63;1.87;;;6.80;99.90;;;10.16;56.31;95694.13;5002046;28;20054;-58
2022/11/22 03:06:55;;;;;;;7.83;2.57;;;6.80;99.90;;;10.14;56.36;95699.66;5003407;28;20058;-58
2022/11/22 03:09:24;;;;;;;2.53;1.70;;;6.80;99.90;;;10.14;56.17;95706.78;5003222;28;20064;-58
2022/11/22 03:11:53;;;;;;;4.47;1.80;;;6.80;99.90;;;10.15;56.29;95706.59;5001939;28;20076;-58
2022/11/22 03:14:21;;;;;;;5.97;1.70;;;6.80;99.90;;;10.15;56.15;95703.91;5001415;28;20072;-59
2022/11/22 03:16:49;;;;;;;15.03;3.20;;;6.80;99.90;;;10.16;55.89;95710.91;5002545;28;20054;-58
2022/11/22 03:19:17;;;;;;;4.30;2.07;;;6.80;99.90;;;10.13;55.88;95708.63;5002919;28;20046;-58
2022/11/22 03:21:45;;;;;;;12.43;4.23;;;6.80;99.90;;;10.12;56.18;95714.16;5003135;28;20050;-58
2022/11/22 03:24:13;;;;;;;30.17;10.17;;;6.80;99.90;;;10.09;56.15;95712.72;5002287;28;20046;-58
2022/11/22 03:26:47;;;;;;;32.53;12.83;;;6.70;99.90;;;10.00;56.43;95713.94;5003077;28;20046;-57
2022/11/22 03:29:16;;;;;;;36.92;14.85;;;6.70;99.90;;;9.98;56.51;95721.31;5003300;28;20357;-59
2022/11/22 03:31:44;;;;;;;15.40;8.20;;;6.60;99.90;;;9.95;56.30;95721.75;5002782;28;20054;-58
2022/11/22 03:34:12;;;;;;;8.47;5.27;;;6.60;99.90;;;9.95;56.36;95730.53;5000827;28;20053;-58
2022/11/22 03:36:41;;;;;;;8.33;4.73;;;6.60;99.90;;;9.92;56.33;95730.09;5002766;28;20046;-58
2022/11/22 03:39:09;;;;;;;11.47;5.47;;;6.50;99.90;;;9.86;56.43;95734.41;5002519;28;20053;-56
2022/11/22 03:41:37;;;;;;;5.23;3.00;;;6.50;99.90;;;9.84;56.59;95731.94;5002819;28;20046;-58
2022/11/22 03:44:05;;;;;;;3.93;2.50;;;6.50;99.90;;;9.87;56.58;95757.31;5002116;28;20056;-58
2022/11/22 03:46:33;;;;;;;2.50;1.90;;;6.50;99.90;;;9.85;56.67;95744.22;5001791;28;20049;-58
2022/11/22 03:49:01;;;;;;;4.13;2.00;;;6.50;99.90;;;9.84;56.49;95745.22;5002971;28;20050;-58
2022/11/22 03:51:28;;;;;;;4.33;1.97;;;6.50;99.90;;;9.87;56.40;95738.69;5001423;28;20221;-58
2022/11/22 03:53:57;;;;;;;3.90;2.17;;;6.50;99.90;;;9.86;56.18;95740.53;5002128;28;20068;-58
2022/11/22 03:56:25;;;;;;;3.10;1.60;;;6.50;99.90;;;9.87;56.37;95733.38;5001352;28;20043;-58
2022/11/22 03:58:53;;;;;;;7.00;2.27;;;6.50;99.90;;;9.90;56.12;95730.31;5001624;28;20345;-58
2022/11/22 04:01:21;;;;;;;3.93;1.77;;;6.60;99.90;;;9.91;56.18;95736.47;5002213;28;20053;-59
2022/11/22 04:03:49;;;;;;;5.80;2.00;;;6.60;99.90;;;9.92;56.11;95735.41;5001302;28;20237;-57
2022/11/22 04:06:17;;;;;;;4.63;2.00;;;6.60;99.90;;;9.92;56.04;95736.22;5001185;28;20046;-58
2022/11/22 04:08:45;;;;;;;3.13;2.40;;;6.60;99.90;;;9.88;56.04;95744.81;5002524;28;20374;-57
2022/11/22 04:11:12;;;;;;;7.27;2.23;;;6.50;99.90;;;9.87;55.97;95754.66;5001861;28;20055;-58
2022/11/22 04:16:27;;;;;;;3.63;1.87;;;6.50;99.90;;;9.89;55.90;95749.94;5002310;28;20072;-58
2022/11/22 04:18:55;;;;;;;3.33;1.77;;;6.50;99.90;;;9.92;56.29;95746.06;5001441;28;20042;-58
2022/11/22 04:21:34;;;;;;;3.87;1.80;;;6.60;99.90;;;9.95;56.24;95753.63;5002072;28;20049;-58
2022/11/22 04:26:52;;;;;;;2.87;1.80;;;6.60;99.90;;;10.01;55.59;95748.31;5001247;28;20053;-56
2022/11/22 04:29:21;;;;;;;5.40;2.17;;;6.60;99.90;;;10.02;55.71;95747.31;5001006;28;20054;-58
2022/11/22 04:34:37;;;;;;;3.43;1.70;;;6.70;99.90;;;9.98;55.79;95751.41;5001002;28;20042;-57
2022/11/22 04:37:05;;;;;;;4.27;1.90;;;6.60;99.90;;;9.94;55.65;95750.13;5001860;28;20046;-56
2022/11/22 04:39:33;;;;;;;3.30;1.43;;;6.60;99.90;;;9.94;55.98;95749.31;5002253;28;20042;-57
2022/11/22 04:44:58;;;;;;;10.53;2.03;;;6.60;99.90;;;9.98;55.69;95753.22;4986778;28;20414;-57
2022/11/22 04:53:03;;;;;;;7.63;2.03;;;6.50;99.90;;;9.85;55.72;95736.25;5006007;28;20046;-57
2022/11/22 04:55:31;;;;;;;4.83;2.13;;;6.50;99.90;;;9.87;55.46;95730.72;5002845;28;20046;-55
2022/11/22 04:57:59;;;;;;;2.83;1.53;;;6.50;99.90;;;9.87;55.41;95733.38;5003777;28;20050;-56
2022/11/22 05:00:29;;;;;;;3.93;1.73;;;6.50;99.90;;;9.88;55.61;95734.19;5005613;28;20061;-57
2022/11/22 05:02:58;;;;;;;4.53;1.70;;;6.50;99.90;;;9.88;55.21;95736.84;5006044;28;20062;-57
2022/11/22 05:05:26;;;;;;;10.50;2.70;;;6.50;99.90;;;9.86;55.56;95745.03;5005143;28;20050;-56
2022/11/22 05:07:57;;;;;;;5.00;2.10;;;6.50;99.90;;;9.84;55.41;95744.41;5005379;28;20046;-57
2022/11/22 05:10:25;;;;;;;3.70;1.43;;;6.50;99.90;;;9.80;55.27;95746.66;5004592;28;20046;-57
2022/11/22 05:12:54;;;;;;;5.63;1.80;;;6.40;99.90;;;9.77;55.42;95746.22;5005200;28;20048;-57
2022/11/22 05:15:22;;;;;;;2.87;1.50;;;6.40;99.90;;;9.68;55.45;95750.13;5003653;28;20056;-57
2022/11/22 05:17:50;;;;;;;5.10;1.70;;;6.30;99.90;;;9.69;55.48;95754.41;5005263;28;20336;-57
2022/11/22 05:20:18;;;;;;;6.03;2.47;;;6.30;99.90;;;9.69;55.64;95759.72;5005375;28;20257;-56
2022/11/22 05:25:32;;;;;;;3.00;1.80;;;6.30;99.90;;;9.71;55.83;95768.31;5004886;28;20072;-55
2022/11/22 05:28:00;;;;;;;4.63;1.90;;;6.30;99.90;;;9.72;55.66;95769.97;5003689;28;20052;-58
2022/11/22 05:30:27;;;;;;;7.03;2.27;;;6.30;99.90;;;9.76;55.87;95764.03;5004888;28;20046;-56
2022/11/22 05:32:55;;;;;;;9.90;3.07;;;6.30;99.90;;;9.83;55.83;95778.16;5005077;28;20046;-58
2022/11/22 05:35:23;;;;;;;5.87;2.17;;;6.40;99.90;;;9.86;55.75;95779.56;5004389;28;20048;-55
2022/11/22 05:37:51;;;;;;;6.33;2.13;;;6.50;99.90;;;9.86;55.80;95784.88;5004182;28;20054;-56
2022/11/22 05:40:19;;;;;;;10.10;1.60;;;6.40;99.90;;;9.87;55.57;95775.91;5004649;28;20042;-56
2022/11/22 05:42:46;;;;;;;6.80;1.90;;;6.50;99.90;;;9.88;55.78;95777.53;5003881;28;20046;-57
2022/11/22 05:45:14;;;;;;;5.00;2.60;;;6.50;99.90;;;9.92;55.93;95775.28;5004310;28;20061;-57
2022/11/22 05:47:44;;;;;;;14.50;2.13;;;6.50;99.90;;;9.96;55.19;95771.22;5004888;28;20052;-56
2022/11/22 05:50:12;;;;;;;8.73;1.90;;;6.50;99.90;;;9.97;55.31;95780.84;5004557;28;20053;-57
2022/11/22 05:52:40;;;;;;;4.87;2.00;;;6.50;99.90;;;9.96;54.90;95776.53;5004457;28;20041;-55
2022/11/22 05:55:08;;;;;;;7.07;1.80;;;6.50;99.90;;;9.96;54.84;95776.53;5003899;28;20048;-58
2022/11/22 05:57:36;;;;;;;3.67;1.77;;;6.60;99.90;;;9.96;54.94;95777.34;5005183;28;20046;-57
2022/11/22 06:00:06;;;;;;;7.47;2.50;;;6.60;99.90;;;9.95;54.87;95788.19;5004764;28;20352;-58
2022/11/22 06:02:38;;;;;;;9.73;3.23;;;6.60;99.90;;;9.98;54.55;95793.09;5005382;28;20052;-58
2022/11/22 06:05:06;;;;;;;5.10;2.10;;;6.60;99.90;;;9.98;54.93;95785.94;5003622;28;20054;-57
2022/11/22 06:07:34;;;;;;;5.40;1.50;;;6.60;99.90;;;9.99;54.78;95792.88;5004604;28;20340;-56
2022/11/22 06:10:03;;;;;;;7.57;1.70;;;6.60;99.90;;;9.96;54.88;95798.59;5004365;28;20054;-56
2022/11/22 06:12:30;;;;;;;7.77;2.83;;;6.60;99.90;;;9.92;54.97;95800.03;5004101;28;20276;-57
2022/11/22 06:14:58;;;;;;;5.33;1.53;;;6.50;99.90;;;9.86;54.87;95806.16;5003940;28;20367;-57
2022/11/22 06:17:26;;;;;;;6.17;1.70;;;6.40;99.90;;;9.81;55.06;95805.97;5004032;28;20048;-58
2022/11/22 06:19:53;;;;;;;3.60;1.60;;;6.40;99.90;;;9.82;55.06;95811.06;5003256;28;20048;-58
2022/11/22 06:22:21;;;;;;;5.03;2.43;;;6.40;99.90;;;9.80;55.09;95810.44;5004091;28;20049;-58
2022/11/22 06:24:49;;;;;;;6.37;3.23;;;6.40;99.90;;;9.78;55.16;95811.66;5003937;28;20060;-58
2022/11/22 06:27:17;;;;;;;8.50;3.10;;;6.40;99.90;;;9.79;55.12;95815.94;5003961;28;20050;-58
2022/11/22 06:29:45;;;;;;;9.90;3.30;;;6.40;99.90;;;9.77;55.23;95825.97;5004041;28;20333;-59
2022/11/22 06:32:12;;;;;;;4.27;2.13;;;6.40;99.90;;;9.74;55.04;95823.72;5002562;28;20049;-59
2022/11/22 06:34:40;;;;;;;6.87;2.17;;;6.30;99.90;;;9.77;55.11;95839.25;5003856;28;20366;-58
2022/11/22 06:37:08;;;;;;;6.10;2.20;;;6.30;99.90;;;9.76;55.09;95838.44;5003453;28;20046;-57
2022/11/22 06:39:36;;;;;;;7.80;2.17;;;6.40;99.90;;;9.76;55.09;95842.94;5002745;28;20050;-58
2022/11/22 06:42:04;;;;;;;7.87;1.83;;;6.30;99.90;;;9.70;55.10;95854.38;5003205;28;20054;-57
2022/11/22 06:44:33;;;;;;;4.53;1.60;;;6.30;99.90;;;9.66;55.31;95865.38;5001828;28;20054;-58
2022/11/22 06:47:00;;;;;;;4.57;1.90;;;6.20;99.90;;;9.66;55.36;95864.56;5001825;28;20054;-58
2022/11/22 06:49:28;;;;;;;8.80;2.30;;;6.20;99.90;;;9.64;55.26;95872.72;5002486;28;20053;-63
2022/11/22 06:51:56;;;;;;;12.07;3.17;;;6.20;99.90;;;9.63;55.35;95876.44;5003577;28;20118;-60
2022/11/22 06:54:24;;;;;;;5.67;1.70;;;6.20;99.90;;;9.65;55.00;95892.16;5001831;28;20049;-59
2022/11/22 06:56:52;;;;;;;4.93;2.03;;;6.20;99.90;;;9.65;55.08;95886.84;5003718;28;20072;-60
2022/11/22 06:59:20;;;;;;;3.13;1.47;;;6.20;99.90;;;9.65;55.06;95898.31;5003366;28;20046;-59
2022/11/22 07:01:47;;;;;;;4.27;1.53;;;6.20;99.90;;;9.64;54.92;95888.69;5003435;28;20046;-60
2022/11/22 07:04:15;;;;;;;8.13;2.57;;;6.20;99.90;;;9.62;55.14;95882.75;5002705;28;20060;-60
2022/11/22 07:06:43;;;;;;;5.60;2.07;;;6.20;99.90;;;9.63;55.12;95896.84;5003048;28;20054;-60
2022/11/22 07:09:11;;;;;;;3.27;1.43;;;6.20;99.90;;;9.62;55.40;95906.66;5002913;28;20050;-60
2022/11/22 07:11:40;;;;;;;3.97;2.17;;;6.20;99.90;;;9.64;55.08;95909.94;5002296;28;20052;-60
2022/11/22 07:14:08;;;;;;;6.70;1.87;;;6.20;99.90;;;9.68;55.40;95906.91;5001726;28;20056;-60
2022/11/22 07:16:37;;;;;;;5.70;2.20;;;6.30;99.90;;;9.74;55.06;95909.56;5003536;28;20050;-60
2022/11/22 07:19:06;;;;;;;3.87;2.77;;;6.30;99.90;;;9.79;54.81;95908.97;5002983;28;20357;-60
2022/11/22 07:21:36;;;;;;;3.23;1.40;;;6.40;99.90;;;9.80;54.84;95914.09;5003238;28;20053;-60
2022/11/22 07:24:06;;;;;;;5.27;1.47;;;6.40;99.90;;;9.82;54.81;95912.03;5001732;28;20050;-60
2022/11/22 07:26:33;;;;;;;7.43;1.77;;;6.50;99.90;;;9.88;54.77;95922.91;5002831;28;20050;-60
2022/11/22 07:29:02;;;;;;;7.33;2.63;;;6.50;99.90;;;9.92;54.36;95911.66;5001996;28;20053;-60
2022/11/22 07:31:30;;;;;;;8.43;1.57;;;6.60;99.20;;;9.96;54.45;95912.91;5001370;28;20356;-60
2022/11/22 07:33:58;;;;;;;2.97;1.30;;;6.60;99.30;;;10.00;54.35;95916.84;5001313;28;20042;-59
2022/11/22 07:36:28;;;;;;;5.90;1.50;;;6.60;99.40;;;10.00;54.62;95914.19;5002548;28;20248;-60
2022/11/22 07:38:56;;;;;;;8.83;2.70;;;6.70;99.30;;;10.02;54.52;95921.94;5002992;28;20046;-59
2022/11/22 07:41:24;;;;;;;5.87;1.63;;;6.60;98.60;;;10.02;54.66;95925.44;5002687;28;20050;-60
2022/11/22 07:43:52;;;;;;;9.27;2.63;;;6.60;98.60;;;10.07;54.45;95926.66;5000577;28;20061;-60
2022/11/22 07:46:29;;;;;;;5.27;1.83;;;6.70;98.50;;;10.07;54.28;95934.63;5001652;28;20050;-60
2022/11/22 07:49:00;;;;;;;5.83;2.03;;;6.60;97.60;;;10.06;54.15;95939.13;5001688;28;20048;-59
2022/11/22 07:51:28;;;;;;;7.67;1.93;;;6.70;97.90;;;10.07;54.15;95937.28;5003073;28;20054;-60
2022/11/22 07:53:57;;;;;;;9.83;2.37;;;6.60;97.50;;;10.09;53.86;95932.59;4999800;28;20061;-60
2022/11/22 07:56:25;;;;;;;5.87;1.60;;;6.70;97.70;;;10.13;54.07;95941.81;4998266;28;20048;-60
2022/11/22 07:58:54;;;;;;;5.83;3.00;;;6.70;97.50;;;10.13;54.16;95941.81;5001355;28;20043;-60
2022/11/22 08:01:22;;;;;;;4.57;1.70;;;6.80;97.50;;;10.16;54.15;95954.72;5001061;28;20050;-60
2022/11/22 08:03:50;;;;;;;4.57;1.60;;;6.80;97.30;;;10.17;54.18;95956.34;5000941;28;20197;-60
2022/11/22 08:06:18;;;;;;;4.00;1.30;;;6.80;97.10;;;10.16;54.03;95958.19;5002453;28;20252;-60
2022/11/22 08:08:45;;;;;;;3.27;1.83;;;6.80;97.80;;;10.14;53.95;95957.56;5001216;28;20046;-60
2022/11/22 08:11:13;;;;;;;6.20;1.50;;;6.80;97.40;;;10.15;54.00;95961.03;5002268;28;20353;-60
2022/11/22 08:13:41;;;;;;;7.53;1.50;;;6.90;98.00;;;10.15;54.06;95966.38;5001091;28;20057;-59
2022/11/22 08:16:13;;;;;;;2.40;1.43;;;6.80;97.50;;;10.14;53.96;95964.72;5002450;28;20050;-59
2022/11/22 08:18:47;;;;;;;5.27;1.93;;;6.80;97.80;;;10.13;54.26;95963.91;5004007;28;20051;-60
2022/11/22 08:21:17;;;;;;;4.75;1.77;;;6.70;97.90;;;10.12;54.31;95962.28;5005153;28;20046;-59
2022/11/22 08:23:46;;;;;;;2.97;1.70;;;6.70;98.20;;;10.12;54.26;95962.28;5005968;28;20050;-60
2022/11/22 08:26:16;;;;;;;8.77;2.87;;;6.70;98.60;;;10.13;54.13;95961.25;5004844;28;20352;-59
2022/11/22 08:28:44;;;;;;;5.70;1.90;;;6.70;98.70;;;10.12;54.29;95966.75;5005209;28;20046;-59
2022/11/22 08:31:18;;;;;;;5.70;2.13;;;6.70;99.10;;;10.12;54.50;95964.09;5020736;28;20056;-59
2022/11/22 08:33:47;;;;;;;6.90;2.00;;;6.70;98.90;;;10.12;54.29;95953.44;5004709;28;20052;-60
2022/11/22 08:36:15;;;;;;;7.33;2.60;;;6.70;99.00;;;10.13;54.33;95957.75;5006162;28;20248;-59
2022/11/22 08:38:43;;;;;;;8.93;2.50;;;6.70;98.70;;;10.14;54.16;95968.22;5005094;28;20065;-59
2022/11/22 08:41:11;;;;;;;8.03;1.93;;;6.70;98.80;;;10.15;54.03;95950.41;5004640;28;20068;-59
2022/11/22 08:43:39;;;;;;;8.33;2.00;;;6.80;98.80;;;10.19;54.34;95954.31;5005398;28;20042;-59
2022/11/22 08:46:07;;;;;;;4.43;1.87;;;6.80;98.50;;;10.24;53.96;95951.88;5005942;28;20050;-59
2022/11/22 08:48:37;;;;;;;7.10;2.33;;;6.90;98.20;;;10.29;54.24;95941.44;5005932;28;20057;-59
2022/11/22 08:51:08;;;;;;;9.37;2.07;;;6.90;97.90;;;10.32;54.00;95946.41;5004356;28;20057;-60
2022/11/22 08:53:42;;;;;;;4.03;2.27;;;7.00;97.60;;;10.32;54.13;95943.75;5003961;28;20058;-60
2022/11/22 08:56:14;;;;;;;5.78;2.08;;;6.90;97.40;;;10.36;53.77;95936.19;5004583;28;20053;-59
2022/11/22 08:58:42;;;;;;;9.00;1.83;;;6.90;97.40;;;10.37;54.03;95941.31;5004080;28;20046;-59
2022/11/22 09:01:14;;;;;;;6.10;2.47;;;7.00;97.20;;;10.40;54.11;95940.06;5004956;28;20042;-60
2022/11/22 09:03:43;;;;;;;7.00;1.70;;;7.00;97.20;;;10.45;53.72;95934.97;5003969;28;20046;-59
2022/11/22 09:06:14;;;;;;;5.43;2.07;;;7.10;96.50;;;10.46;53.55;95927.81;5004259;28;20054;-60
2022/11/22 09:09:02;;;;;;;4.17;1.97;;;7.10;96.20;;;10.47;53.70;95930.28;5003261;28;20054;-59
2022/11/22 09:11:50;;;;;;;4.47;1.87;;;7.10;95.70;;;10.50;53.28;95929.03;5005473;28;20068;-59
2022/11/22 09:14:17;;;;;;;12.97;2.30;;;7.10;95.10;;;10.46;53.58;95917.16;5003332;28;20244;-60
2022/11/22 09:16:45;;;;;;;4.20;1.67;;;7.10;95.00;;;10.50;53.49;95924.53;5005539;28;20141;-59
2022/11/22 09:19:13;;;;;;;6.23;2.90;;;7.10;94.20;;;10.50;53.29;95924.53;5004871;28;20072;-60
2022/11/22 09:21:41;;;;;;;3.97;1.70;;;7.20;94.10;;;10.51;53.04;95931.50;5006052;28;20046;-59
2022/11/22 09:24:09;;;;;;;7.37;2.37;;;7.20;94.00;;;10.54;52.88;95924.94;5005083;28;20054;-60
2022/11/22 09:26:36;;;;;;;4.47;1.70;;;7.20;92.40;;;10.56;53.17;95934.34;5005015;28;20050;-60
2022/11/22 09:29:05;;;;;;;6.23;2.30;;;7.20;92.90;;;10.61;52.92;95939.09;5004944;28;20054;-59
2022/11/22 09:31:33;;;;;;;6.10;1.93;;;7.30;93.80;;;10.64;53.17;95938.66;5005722;28;20054;-60
2022/11/22 09:34:00;;;;;;;4.20;1.67;;;7.30;93.30;;;10.62;52.89;95938.88;5004469;28;20057;-59
2022/11/22 09:36:29;;;;;;;6.40;3.33;;;7.30;93.30;;;10.64;53.40;95938.66;5005226;28;20054;-60
2022/11/22 09:38:57;;;;;;;6.10;2.73;;;7.30;94.10;;;10.69;53.40;95949.53;5005152;28;20181;-60
2022/11/22 09:42:03;;;;;;;6.40;1.90;;;7.40;94.00;;;10.72;53.48;95948.28;5004852;28;20068;-59
2022/11/22 09:44:37;;;;;;;4.33;1.77;;;7.40;94.00;;;10.78;53.18;95944.84;5004661;28;20050;-60
2022/11/22 09:48:08;;;;;;;5.13;2.67;;;7.40;94.30;;;10.77;53.26;95961.81;5004521;28;20050;-60
2022/11/22 09:51:05;;;;;;;6.53;2.30;;;7.50;93.50;;;10.76;53.20;95963.66;4963789;29;20272;-59
2022/11/22 09:53:58;;;;;;;4.17;1.73;;;7.50;94.10;;;10.78;53.28;95963.47;4963384;29;20061;-60
2022/11/22 09:56:28;;;;;;;4.63;1.40;;;7.50;94.50;;;10.85;53.20;95974.94;4998818;28;20058;-60
2022/11/22 09:59:02;;;;;;;5.67;1.90;;;7.60;94.60;;;10.90;53.55;95975.16;5003631;28;20333;-60
2022/11/22 10:01:44;;;;;;;;;;;7.70;94.10;;;11.01;53.45;95976.38;5003994;28;20050;-60
2022/11/22 10:04:31;;;;;;;3.47;1.70;;;7.70;93.20;;;11.09;53.33;95980.66;5003104;28;19924;-60
2022/11/22 10:07:09;;;;;;;12.43;2.27;;;7.80;93.80;;;11.13;53.44;95977.41;5003478;28;20050;-60
2022/11/22 10:09:53;;;;;;;4.60;1.70;;;7.90;93.60;;;11.21;53.30;95974.53;5002438;28;20053;-60
2022/11/22 10:12:35;;;;;;;7.70;2.08;;;8.00;93.80;;;11.26;52.92;95981.09;5003148;28;20240;-60
2022/11/22 10:15:41;;;;;;;5.33;1.80;;;8.00;93.60;;;11.27;53.23;95985.41;5001616;28;20053;-60
2022/11/22 10:18:42;;;;;;;3.43;2.30;;;8.10;93.40;;;11.29;53.30;95992.16;5001907;28;20042;-60
2022/11/22 10:21:14;;;;;;;5.83;2.77;;;8.10;93.90;;;11.36;53.14;95992.13;4997177;28;20233;-60
2022/11/22 10:23:43;;;;;;;5.33;2.87;;;8.20;93.80;;;11.39;52.99;95991.72;5001020;28;20047;-60
2022/11/22 10:26:34;;;;;;;8.20;2.17;;;8.30;93.60;;;11.45;53.62;96003.41;5001690;28;20050;-60
2022/11/22 10:29:36;;;;;;;6.13;2.23;;;8.40;93.10;;;11.50;53.02;95995.63;5002261;28;20052;-60
2022/11/22 10:32:33;;;;;;;7.43;2.50;;;8.40;93.10;;;11.51;53.18;95989.25;5004096;28;20068;-60
2022/11/22 10:35:21;;;;;;;3.17;2.07;;;8.40;93.00;;;11.59;53.19;95997.03;5002041;28;20048;-60
2022/11/22 10:38:10;;;;;;;8.37;2.93;;;8.40;93.00;;;11.62;52.90;95996.63;5003826;28;20042;-60
2022/11/22 10:40:49;;;;;;;4.73;1.87;;;8.40;93.00;;;11.65;53.14;95998.88;5001716;28;20050;-60
2022/11/22 10:43:44;;;;;;;4.33;3.10;;;8.50;92.80;;;11.65;53.13;95998.88;5003682;28;20053;-60
2022/11/22 10:46:26;;;;;;;;;;;8.50;92.30;;;11.76;52.71;95997.41;5001847;28;20060;-60
2022/11/22 10:49:48;;;;;;;6.67;1.87;;;8.50;91.70;;;11.73;52.74;96008.47;4995481;28;19952;-60
2022/11/22 10:52:45;;;;;;;6.57;2.07;;;8.50;92.00;;;11.73;52.52;96003.16;4995891;28;20172;-60
2022/11/22 10:55:37;;;;;;;6.27;1.90;;;8.50;90.60;;;11.72;52.41;96004.19;4990017;28;20047;-60
2022/11/22 10:58:34;;;;;;;3.83;1.70;;;8.50;88.60;;;11.72;52.02;96007.66;4994046;28;20061;-60
2022/11/22 11:01:39;;;;;;;3.17;1.60;;;8.50;88.30;;;11.76;52.04;96005.41;4997061;28;20054;-60
2022/11/22 11:04:10;;;;;;;5.17;1.63;;;8.60;87.80;;;11.81;51.17;96002.94;4994474;28;20060;-61
2022/11/22 11:06:51;;;;;;;7.90;1.43;;;8.50;87.60;;;11.84;51.29;96005.19;5002717;28;20233;-60